sensor_id;sensor_type;location;lat;lon;timestamp;P1;durP1;ratioP1;P2;durP2;ratioP2
31073;SDS011;17730;53.552;9.940;2022-08-04T00:02:32;13.95;;;7.95;;
31073;SDS011;17730;53.552;9.940;2022-08-04T00:05:11;19.42;;;7.53;;
31073;SDS011;17730;53.552;9.940;2022-08-04T00:07:48;25.88;;;9.10;;
31073;SDS011;17730;53.552;9.940;2022-08-04T00:10:22;18.98;;;8.88;;
31073;SDS011;17730;53.552;9.940;2022-08-04T00:12:51;23.35;;;8.10;;
31073;SDS011;17730;53.552;9.940;2022-08-04T00:15:19;16.92;;;8.02;;
31073;SDS011;17730;53.552;9.940;2022-08-04T00:17:48;14.25;;;8.07;;
31073;SDS011;17730;53.552;9.940;2022-08-04T00:20:18;17.55;;;7.97;;
31073;SDS011;17730;53.552;9.940;2022-08-04T00:22:45;18.63;;;8.93;;
31073;SDS011;17730;53.552;9.940;2022-08-04T00:25:12;19.33;;;8.55;;
31073;SDS011;17730;53.552;9.940;2022-08-04T00:27:38;16.40;;;8.15;;
31073;SDS011;17730;53.552;9.940;2022-08-04T00:30:04;15.43;;;8.15;;
31073;SDS011;17730;53.552;9.940;2022-08-04T00:32:31;18.48;;;8.98;;
31073;SDS011;17730;53.552;9.940;2022-08-04T00:34:57;17.08;;;7.78;;
31073;SDS011;17730;53.552;9.940;2022-08-04T00:37:24;16.10;;;8.32;;
31073;SDS011;17730;53.552;9.940;2022-08-04T00:39:51;19.75;;;7.90;;
31073;SDS011;17730;53.552;9.940;2022-08-04T00:42:25;20.42;;;7.85;;
31073;SDS011;17730;53.552;9.940;2022-08-04T00:50:15;17.15;;;8.13;;
31073;SDS011;17730;53.552;9.940;2022-08-04T00:55:53;17.73;;;7.40;;
31073;SDS011;17730;53.552;9.940;2022-08-04T00:58:33;19.98;;;7.45;;
31073;SDS011;17730;53.552;9.940;2022-08-04T01:01:26;16.48;;;6.78;;
31073;SDS011;17730;53.552;9.940;2022-08-04T01:06:34;25.83;;;6.55;;
31073;SDS011;17730;53.552;9.940;2022-08-04T01:15:03;16.70;;;5.95;;
31073;SDS011;17730;53.552;9.940;2022-08-04T01:20:04;15.43;;;5.97;;
31073;SDS011;17730;53.552;9.940;2022-08-04T01:30:44;11.38;;;4.60;;
31073;SDS011;17730;53.552;9.940;2022-08-04T01:33:13;14.55;;;4.35;;
31073;SDS011;17730;53.552;9.940;2022-08-04T01:38:28;10.73;;;4.55;;
31073;SDS011;17730;53.552;9.940;2022-08-04T01:41:04;12.35;;;4.47;;
31073;SDS011;17730;53.552;9.940;2022-08-04T01:43:32;11.70;;;5.05;;
31073;SDS011;17730;53.552;9.940;2022-08-04T01:46:04;10.80;;;4.47;;
31073;SDS011;17730;53.552;9.940;2022-08-04T01:48:30;16.95;;;4.70;;
31073;SDS011;17730;53.552;9.940;2022-08-04T01:51:02;9.68;;;4.43;;
31073;SDS011;17730;53.552;9.940;2022-08-04T01:53:33;14.82;;;4.80;;
31073;SDS011;17730;53.552;9.940;2022-08-04T01:56:01;13.07;;;4.47;;
31073;SDS011;17730;53.552;9.940;2022-08-04T01:58:29;14.68;;;4.70;;
31073;SDS011;17730;53.552;9.940;2022-08-04T02:00:59;11.10;;;4.78;;
31073;SDS011;17730;53.552;9.940;2022-08-04T02:03:28;12.63;;;4.75;;
31073;SDS011;17730;53.552;9.940;2022-08-04T02:08:44;12.77;;;4.32;;
31073;SDS011;17730;53.552;9.940;2022-08-04T02:11:40;11.30;;;4.82;;
31073;SDS011;17730;53.552;9.940;2022-08-04T02:14:43;9.13;;;4.95;;
31073;SDS011;17730;53.552;9.940;2022-08-04T02:17:18;13.45;;;5.35;;
31073;SDS011;17730;53.552;9.940;2022-08-04T02:22:28;11.45;;;4.68;;
31073;SDS011;17730;53.552;9.940;2022-08-04T02:25:00;12.02;;;4.50;;
31073;SDS011;17730;53.552;9.940;2022-08-04T02:27:31;15.00;;;4.65;;
31073;SDS011;17730;53.552;9.940;2022-08-04T02:30:08;13.75;;;4.45;;
31073;SDS011;17730;53.552;9.940;2022-08-04T02:32:35;12.52;;;4.97;;
31073;SDS011;17730;53.552;9.940;2022-08-04T02:35:07;9.80;;;4.80;;
31073;SDS011;17730;53.552;9.940;2022-08-04T02:37:46;14.25;;;4.93;;
31073;SDS011;17730;53.552;9.940;2022-08-04T02:40:13;9.77;;;3.97;;
31073;SDS011;17730;53.552;9.940;2022-08-04T02:42:46;11.65;;;4.45;;
31073;SDS011;17730;53.552;9.940;2022-08-04T02:45:12;12.57;;;4.20;;
31073;SDS011;17730;53.552;9.940;2022-08-04T02:47:39;13.73;;;4.80;;
31073;SDS011;17730;53.552;9.940;2022-08-04T02:50:07;11.73;;;4.25;;
31073;SDS011;17730;53.552;9.940;2022-08-04T02:52:35;11.23;;;4.80;;
31073;SDS011;17730;53.552;9.940;2022-08-04T02:55:02;11.20;;;4.28;;
31073;SDS011;17730;53.552;9.940;2022-08-04T02:57:30;12.00;;;4.20;;
31073;SDS011;17730;53.552;9.940;2022-08-04T03:00:08;11.40;;;4.00;;
31073;SDS011;17730;53.552;9.940;2022-08-04T03:14:08;14.93;;;4.43;;
31073;SDS011;17730;53.552;9.940;2022-08-04T03:28:46;10.82;;;4.18;;
31073;SDS011;17730;53.552;9.940;2022-08-04T03:31:32;8.88;;;4.20;;
31073;SDS011;17730;53.552;9.940;2022-08-04T03:34:24;13.57;;;5.15;;
31073;SDS011;17730;53.552;9.940;2022-08-04T03:46:05;9.75;;;4.43;;
31073;SDS011;17730;53.552;9.940;2022-08-04T03:49:03;11.93;;;5.13;;
31073;SDS011;17730;53.552;9.940;2022-08-04T04:00:39;13.10;;;5.15;;
31073;SDS011;17730;53.552;9.940;2022-08-04T04:12:26;13.75;;;5.15;;
31073;SDS011;17730;53.552;9.940;2022-08-04T04:18:32;17.75;;;7.88;;
31073;SDS011;17730;53.552;9.940;2022-08-04T04:23:55;15.98;;;5.15;;
31073;SDS011;17730;53.552;9.940;2022-08-04T04:32:24;13.70;;;5.78;;
31073;SDS011;17730;53.552;9.940;2022-08-04T04:43:45;13.68;;;4.88;;
31073;SDS011;17730;53.552;9.940;2022-08-04T04:52:27;10.02;;;3.95;;
31073;SDS011;17730;53.552;9.940;2022-08-04T04:55:23;16.67;;;4.68;;
31073;SDS011;17730;53.552;9.940;2022-08-04T04:57:55;16.52;;;5.43;;
31073;SDS011;17730;53.552;9.940;2022-08-04T05:00:24;18.63;;;4.80;;
31073;SDS011;17730;53.552;9.940;2022-08-04T05:08:48;14.60;;;5.07;;
31073;SDS011;17730;53.552;9.940;2022-08-04T05:11:39;13.40;;;5.15;;
31073;SDS011;17730;53.552;9.940;2022-08-04T05:14:10;19.27;;;5.68;;
31073;SDS011;17730;53.552;9.940;2022-08-04T05:16:53;18.17;;;6.10;;
31073;SDS011;17730;53.552;9.940;2022-08-04T05:22:38;16.63;;;5.30;;
31073;SDS011;17730;53.552;9.940;2022-08-04T05:25:07;18.70;;;5.95;;
31073;SDS011;17730;53.552;9.940;2022-08-04T05:27:48;17.52;;;5.75;;
31073;SDS011;17730;53.552;9.940;2022-08-04T05:33:01;18.75;;;5.57;;
31073;SDS011;17730;53.552;9.940;2022-08-04T05:37:57;13.15;;;5.10;;
31073;SDS011;17730;53.552;9.940;2022-08-04T05:40:25;8.23;;;4.40;;
31073;SDS011;17730;53.552;9.940;2022-08-04T05:42:51;13.20;;;4.88;;
31073;SDS011;17730;53.552;9.940;2022-08-04T05:45:19;14.90;;;5.15;;
31073;SDS011;17730;53.552;9.940;2022-08-04T05:47:47;9.60;;;4.85;;
31073;SDS011;17730;53.552;9.940;2022-08-04T05:50:14;12.88;;;4.30;;
31073;SDS011;17730;53.552;9.940;2022-08-04T05:52:40;6.65;;;4.13;;
31073;SDS011;17730;53.552;9.940;2022-08-04T05:55:07;9.82;;;4.57;;
31073;SDS011;17730;53.552;9.940;2022-08-04T05:57:36;12.68;;;4.53;;
31073;SDS011;17730;53.552;9.940;2022-08-04T06:00:06;14.98;;;4.13;;
31073;SDS011;17730;53.552;9.940;2022-08-04T06:02:33;16.42;;;4.32;;
31073;SDS011;17730;53.552;9.940;2022-08-04T06:05:01;15.43;;;4.50;;
31073;SDS011;17730;53.552;9.940;2022-08-04T06:07:31;12.65;;;5.22;;
31073;SDS011;17730;53.552;9.940;2022-08-04T06:09:57;10.75;;;5.47;;
31073;SDS011;17730;53.552;9.940;2022-08-04T06:12:46;15.60;;;5.10;;
31073;SDS011;17730;53.552;9.940;2022-08-04T06:15:17;10.20;;;4.78;;
31073;SDS011;17730;53.552;9.940;2022-08-04T06:17:47;19.30;;;4.50;;
31073;SDS011;17730;53.552;9.940;2022-08-04T06:20:16;19.50;;;4.50;;
31073;SDS011;17730;53.552;9.940;2022-08-04T06:22:45;10.85;;;4.60;;
31073;SDS011;17730;53.552;9.940;2022-08-04T06:25:16;23.25;;;6.20;;
31073;SDS011;17730;53.552;9.940;2022-08-04T06:27:44;13.55;;;4.55;;
31073;SDS011;17730;53.552;9.940;2022-08-04T06:30:11;11.63;;;3.97;;
31073;SDS011;17730;53.552;9.940;2022-08-04T06:32:43;10.68;;;3.72;;
31073;SDS011;17730;53.552;9.940;2022-08-04T06:35:17;14.20;;;4.50;;
31073;SDS011;17730;53.552;9.940;2022-08-04T06:37:44;11.45;;;4.20;;
31073;SDS011;17730;53.552;9.940;2022-08-04T06:40:11;9.65;;;3.90;;
31073;SDS011;17730;53.552;9.940;2022-08-04T06:42:42;8.67;;;3.83;;
31073;SDS011;17730;53.552;9.940;2022-08-04T06:45:09;11.63;;;4.38;;
31073;SDS011;17730;53.552;9.940;2022-08-04T06:47:36;11.35;;;4.38;;
31073;SDS011;17730;53.552;9.940;2022-08-04T06:50:04;16.42;;;4.43;;
31073;SDS011;17730;53.552;9.940;2022-08-04T06:52:31;13.15;;;4.30;;
31073;SDS011;17730;53.552;9.940;2022-08-04T06:54:56;12.32;;;4.47;;
31073;SDS011;17730;53.552;9.940;2022-08-04T06:57:23;14.85;;;3.70;;
31073;SDS011;17730;53.552;9.940;2022-08-04T06:59:56;8.48;;;4.55;;
31073;SDS011;17730;53.552;9.940;2022-08-04T07:02:38;15.10;;;4.53;;
31073;SDS011;17730;53.552;9.940;2022-08-04T07:05:08;9.20;;;4.00;;
31073;SDS011;17730;53.552;9.940;2022-08-04T07:07:36;10.70;;;4.40;;
31073;SDS011;17730;53.552;9.940;2022-08-04T07:10:04;14.60;;;4.55;;
31073;SDS011;17730;53.552;9.940;2022-08-04T07:12:31;18.17;;;4.15;;
31073;SDS011;17730;53.552;9.940;2022-08-04T07:14:57;13.07;;;4.40;;
31073;SDS011;17730;53.552;9.940;2022-08-04T07:17:23;14.13;;;4.55;;
31073;SDS011;17730;53.552;9.940;2022-08-04T07:19:50;12.82;;;3.85;;
31073;SDS011;17730;53.552;9.940;2022-08-04T07:22:17;16.17;;;4.60;;
31073;SDS011;17730;53.552;9.940;2022-08-04T07:24:44;9.88;;;3.95;;
31073;SDS011;17730;53.552;9.940;2022-08-04T07:27:10;13.23;;;4.05;;
31073;SDS011;17730;53.552;9.940;2022-08-04T07:29:36;16.73;;;4.25;;
31073;SDS011;17730;53.552;9.940;2022-08-04T07:32:04;17.45;;;4.43;;
31073;SDS011;17730;53.552;9.940;2022-08-04T07:34:31;11.55;;;4.20;;
31073;SDS011;17730;53.552;9.940;2022-08-04T07:36:57;14.63;;;3.97;;
31073;SDS011;17730;53.552;9.940;2022-08-04T07:39:25;14.73;;;6.32;;
31073;SDS011;17730;53.552;9.940;2022-08-04T07:41:52;15.63;;;4.82;;
31073;SDS011;17730;53.552;9.940;2022-08-04T07:44:19;19.23;;;4.50;;
31073;SDS011;17730;53.552;9.940;2022-08-04T07:46:45;15.68;;;4.60;;
31073;SDS011;17730;53.552;9.940;2022-08-04T07:49:11;11.43;;;3.75;;
31073;SDS011;17730;53.552;9.940;2022-08-04T07:51:37;13.85;;;4.03;;
31073;SDS011;17730;53.552;9.940;2022-08-04T07:54:04;14.35;;;4.15;;
31073;SDS011;17730;53.552;9.940;2022-08-04T07:56:32;11.90;;;3.60;;
31073;SDS011;17730;53.552;9.940;2022-08-04T07:58:59;12.10;;;3.72;;
31073;SDS011;17730;53.552;9.940;2022-08-04T08:01:25;14.07;;;4.05;;
31073;SDS011;17730;53.552;9.940;2022-08-04T08:03:51;13.70;;;3.33;;
31073;SDS011;17730;53.552;9.940;2022-08-04T08:06:18;19.10;;;5.07;;
31073;SDS011;17730;53.552;9.940;2022-08-04T08:08:44;14.23;;;3.80;;
31073;SDS011;17730;53.552;9.940;2022-08-04T08:11:10;15.40;;;5.03;;
31073;SDS011;17730;53.552;9.940;2022-08-04T08:13:36;15.35;;;4.47;;
31073;SDS011;17730;53.552;9.940;2022-08-04T08:16:02;11.38;;;4.07;;
31073;SDS011;17730;53.552;9.940;2022-08-04T08:18:29;11.10;;;3.40;;
31073;SDS011;17730;53.552;9.940;2022-08-04T08:20:56;13.43;;;3.95;;
31073;SDS011;17730;53.552;9.940;2022-08-04T08:23:22;11.90;;;3.70;;
31073;SDS011;17730;53.552;9.940;2022-08-04T08:25:49;17.65;;;3.83;;
31073;SDS011;17730;53.552;9.940;2022-08-04T08:28:15;11.57;;;3.60;;
31073;SDS011;17730;53.552;9.940;2022-08-04T08:30:41;17.30;;;3.92;;
31073;SDS011;17730;53.552;9.940;2022-08-04T08:33:08;13.57;;;3.60;;
31073;SDS011;17730;53.552;9.940;2022-08-04T08:35:40;9.93;;;3.45;;
31073;SDS011;17730;53.552;9.940;2022-08-04T08:38:32;12.25;;;3.55;;
31073;SDS011;17730;53.552;9.940;2022-08-04T08:43:54;10.68;;;3.67;;
31073;SDS011;17730;53.552;9.940;2022-08-04T08:55:18;11.18;;;3.47;;
31073;SDS011;17730;53.552;9.940;2022-08-04T09:00:46;14.40;;;3.67;;
31073;SDS011;17730;53.552;9.940;2022-08-04T09:14:59;9.23;;;3.25;;
31073;SDS011;17730;53.552;9.940;2022-08-04T09:17:32;7.78;;;4.00;;
31073;SDS011;17730;53.552;9.940;2022-08-04T09:20:18;15.00;;;3.47;;
31073;SDS011;17730;53.552;9.940;2022-08-04T09:25:34;13.20;;;2.72;;
31073;SDS011;17730;53.552;9.940;2022-08-04T09:28:08;16.27;;;2.97;;
31073;SDS011;17730;53.552;9.940;2022-08-04T09:30:48;9.65;;;3.13;;
31073;SDS011;17730;53.552;9.940;2022-08-04T09:36:23;9.77;;;4.13;;
31073;SDS011;17730;53.552;9.940;2022-08-04T09:42:03;13.02;;;3.38;;
31073;SDS011;17730;53.552;9.940;2022-08-04T09:47:40;6.45;;;2.78;;
31073;SDS011;17730;53.552;9.940;2022-08-04T09:50:29;4.82;;;3.03;;
31073;SDS011;17730;53.552;9.940;2022-08-04T10:00:53;8.65;;;3.50;;
31073;SDS011;17730;53.552;9.940;2022-08-04T10:03:25;8.25;;;3.63;;
31073;SDS011;17730;53.552;9.940;2022-08-04T10:08:53;4.22;;;2.92;;
31073;SDS011;17730;53.552;9.940;2022-08-04T10:11:49;9.65;;;3.50;;
31073;SDS011;17730;53.552;9.940;2022-08-04T10:14:39;10.25;;;3.45;;
31073;SDS011;17730;53.552;9.940;2022-08-04T10:17:18;8.18;;;3.78;;
31073;SDS011;17730;53.552;9.940;2022-08-04T10:20:02;13.20;;;3.10;;
31073;SDS011;17730;53.552;9.940;2022-08-04T10:22:38;9.60;;;3.53;;
31073;SDS011;17730;53.552;9.940;2022-08-04T10:25:16;12.07;;;3.22;;
31073;SDS011;17730;53.552;9.940;2022-08-04T10:27:50;10.20;;;3.47;;
31073;SDS011;17730;53.552;9.940;2022-08-04T10:30:19;5.07;;;3.03;;
31073;SDS011;17730;53.552;9.940;2022-08-04T10:32:48;12.60;;;3.05;;
31073;SDS011;17730;53.552;9.940;2022-08-04T10:35:23;8.75;;;4.32;;
31073;SDS011;17730;53.552;9.940;2022-08-04T10:37:59;6.28;;;3.67;;
31073;SDS011;17730;53.552;9.940;2022-08-04T10:40:33;9.82;;;3.90;;
31073;SDS011;17730;53.552;9.940;2022-08-04T10:48:36;7.15;;;2.85;;
31073;SDS011;17730;53.552;9.940;2022-08-04T10:51:18;5.90;;;3.17;;
31073;SDS011;17730;53.552;9.940;2022-08-04T10:54:01;8.98;;;3.40;;
31073;SDS011;17730;53.552;9.940;2022-08-04T10:59:38;9.95;;;3.50;;
31073;SDS011;17730;53.552;9.940;2022-08-04T11:04:46;7.85;;;3.88;;
31073;SDS011;17730;53.552;9.940;2022-08-04T11:07:17;7.22;;;2.95;;
31073;SDS011;17730;53.552;9.940;2022-08-04T11:09:44;9.30;;;3.10;;
31073;SDS011;17730;53.552;9.940;2022-08-04T11:12:22;4.53;;;2.85;;
31073;SDS011;17730;53.552;9.940;2022-08-04T11:14:52;13.68;;;3.63;;
31073;SDS011;17730;53.552;9.940;2022-08-04T11:17:35;5.30;;;2.90;;
31073;SDS011;17730;53.552;9.940;2022-08-04T11:25:35;7.90;;;2.80;;
31073;SDS011;17730;53.552;9.940;2022-08-04T11:31:02;5.80;;;2.85;;
31073;SDS011;17730;53.552;9.940;2022-08-04T11:36:08;10.40;;;3.28;;
31073;SDS011;17730;53.552;9.940;2022-08-04T11:44:43;3.42;;;2.78;;
31073;SDS011;17730;53.552;9.940;2022-08-04T11:52:24;2.90;;;2.60;;
31073;SDS011;17730;53.552;9.940;2022-08-04T11:54:52;4.28;;;2.50;;
31073;SDS011;17730;53.552;9.940;2022-08-04T11:57:20;4.13;;;2.92;;
31073;SDS011;17730;53.552;9.940;2022-08-04T11:59:46;4.60;;;3.13;;
31073;SDS011;17730;53.552;9.940;2022-08-04T12:02:32;4.65;;;2.80;;
31073;SDS011;17730;53.552;9.940;2022-08-04T12:05:02;4.30;;;2.78;;
31073;SDS011;17730;53.552;9.940;2022-08-04T12:12:41;3.13;;;2.60;;
31073;SDS011;17730;53.552;9.940;2022-08-04T12:15:26;7.00;;;3.10;;
31073;SDS011;17730;53.552;9.940;2022-08-04T12:20:29;7.45;;;3.55;;
31073;SDS011;17730;53.552;9.940;2022-08-04T12:23:01;7.22;;;2.90;;
31073;SDS011;17730;53.552;9.940;2022-08-04T12:25:37;11.77;;;8.13;;
31073;SDS011;17730;53.552;9.940;2022-08-04T12:28:11;5.45;;;3.20;;
31073;SDS011;17730;53.552;9.940;2022-08-04T12:30:50;7.97;;;2.90;;
31073;SDS011;17730;53.552;9.940;2022-08-04T12:33:25;5.13;;;3.42;;
31073;SDS011;17730;53.552;9.940;2022-08-04T12:38:43;4.60;;;3.50;;
31073;SDS011;17730;53.552;9.940;2022-08-04T12:41:14;4.00;;;2.85;;
31073;SDS011;17730;53.552;9.940;2022-08-04T12:43:45;6.97;;;2.75;;
31073;SDS011;17730;53.552;9.940;2022-08-04T12:46:16;7.18;;;2.80;;
31073;SDS011;17730;53.552;9.940;2022-08-04T12:48:47;4.05;;;2.78;;
31073;SDS011;17730;53.552;9.940;2022-08-04T12:51:14;5.97;;;3.40;;
31073;SDS011;17730;53.552;9.940;2022-08-04T12:53:42;4.88;;;3.00;;
31073;SDS011;17730;53.552;9.940;2022-08-04T12:56:10;10.05;;;3.10;;
31073;SDS011;17730;53.552;9.940;2022-08-04T12:58:38;11.32;;;3.03;;
31073;SDS011;17730;53.552;9.940;2022-08-04T13:01:12;5.20;;;2.83;;
31073;SDS011;17730;53.552;9.940;2022-08-04T13:03:52;3.85;;;2.70;;
31073;SDS011;17730;53.552;9.940;2022-08-04T13:06:28;3.38;;;2.72;;
31073;SDS011;17730;53.552;9.940;2022-08-04T13:09:02;6.88;;;3.10;;
31073;SDS011;17730;53.552;9.940;2022-08-04T13:11:33;4.38;;;2.88;;
31073;SDS011;17730;53.552;9.940;2022-08-04T13:14:03;9.00;;;2.97;;
31073;SDS011;17730;53.552;9.940;2022-08-04T13:16:30;7.53;;;2.88;;
31073;SDS011;17730;53.552;9.940;2022-08-04T13:18:56;3.13;;;2.70;;
31073;SDS011;17730;53.552;9.940;2022-08-04T13:21:24;5.43;;;2.88;;
31073;SDS011;17730;53.552;9.940;2022-08-04T13:23:55;3.30;;;2.63;;
31073;SDS011;17730;53.552;9.940;2022-08-04T13:26:24;4.78;;;2.72;;
31073;SDS011;17730;53.552;9.940;2022-08-04T13:28:59;11.75;;;3.05;;
31073;SDS011;17730;53.552;9.940;2022-08-04T13:31:29;6.93;;;2.78;;
31073;SDS011;17730;53.552;9.940;2022-08-04T13:34:07;3.78;;;2.88;;
31073;SDS011;17730;53.552;9.940;2022-08-04T13:36:33;5.40;;;2.42;;
31073;SDS011;17730;53.552;9.940;2022-08-04T13:39:07;5.95;;;2.42;;
31073;SDS011;17730;53.552;9.940;2022-08-04T13:41:38;11.52;;;2.72;;
31073;SDS011;17730;53.552;9.940;2022-08-04T13:44:10;2.92;;;2.25;;
31073;SDS011;17730;53.552;9.940;2022-08-04T13:49:42;9.23;;;2.95;;
31073;SDS011;17730;53.552;9.940;2022-08-04T13:52:40;3.30;;;2.38;;
31073;SDS011;17730;53.552;9.940;2022-08-04T13:55:29;6.70;;;2.60;;
31073;SDS011;17730;53.552;9.940;2022-08-04T13:57:58;6.15;;;2.85;;
31073;SDS011;17730;53.552;9.940;2022-08-04T14:00:36;7.88;;;2.80;;
31073;SDS011;17730;53.552;9.940;2022-08-04T14:03:32;6.07;;;2.65;;
31073;SDS011;17730;53.552;9.940;2022-08-04T14:06:04;6.88;;;3.22;;
31073;SDS011;17730;53.552;9.940;2022-08-04T14:11:00;11.05;;;2.88;;
31073;SDS011;17730;53.552;9.940;2022-08-04T14:13:30;4.78;;;2.70;;
31073;SDS011;17730;53.552;9.940;2022-08-04T14:15:57;3.95;;;3.15;;
31073;SDS011;17730;53.552;9.940;2022-08-04T14:23:28;7.30;;;2.45;;
31073;SDS011;17730;53.552;9.940;2022-08-04T14:26:16;7.43;;;2.97;;
31073;SDS011;17730;53.552;9.940;2022-08-04T14:28:48;11.70;;;2.40;;
31073;SDS011;17730;53.552;9.940;2022-08-04T14:31:16;4.57;;;2.53;;
31073;SDS011;17730;53.552;9.940;2022-08-04T14:33:47;4.43;;;2.70;;
31073;SDS011;17730;53.552;9.940;2022-08-04T14:36:14;5.75;;;4.07;;
31073;SDS011;17730;53.552;9.940;2022-08-04T14:41:08;15.25;;;4.90;;
31073;SDS011;17730;53.552;9.940;2022-08-04T14:43:41;8.93;;;4.85;;
31073;SDS011;17730;53.552;9.940;2022-08-04T14:46:15;13.18;;;5.07;;
31073;SDS011;17730;53.552;9.940;2022-08-04T14:51:33;13.32;;;4.50;;
31073;SDS011;17730;53.552;9.940;2022-08-04T14:54:26;21.58;;;5.15;;
31073;SDS011;17730;53.552;9.940;2022-08-04T14:56:57;12.05;;;4.38;;
31073;SDS011;17730;53.552;9.940;2022-08-04T14:59:47;13.07;;;4.82;;
31073;SDS011;17730;53.552;9.940;2022-08-04T15:02:14;18.77;;;4.97;;
31073;SDS011;17730;53.552;9.940;2022-08-04T15:04:42;15.82;;;5.20;;
31073;SDS011;17730;53.552;9.940;2022-08-04T15:07:10;20.58;;;5.40;;
31073;SDS011;17730;53.552;9.940;2022-08-04T15:09:36;22.25;;;5.53;;
31073;SDS011;17730;53.552;9.940;2022-08-04T15:12:02;19.10;;;5.20;;
31073;SDS011;17730;53.552;9.940;2022-08-04T15:14:29;11.73;;;4.60;;
31073;SDS011;17730;53.552;9.940;2022-08-04T15:16:55;20.30;;;7.25;;
31073;SDS011;17730;53.552;9.940;2022-08-04T15:19:22;19.55;;;6.28;;
31073;SDS011;17730;53.552;9.940;2022-08-04T15:21:49;19.35;;;4.70;;
31073;SDS011;17730;53.552;9.940;2022-08-04T15:24:15;16.25;;;5.82;;
31073;SDS011;17730;53.552;9.940;2022-08-04T15:26:42;16.98;;;5.75;;
31073;SDS011;17730;53.552;9.940;2022-08-04T15:29:14;15.05;;;5.38;;
31073;SDS011;17730;53.552;9.940;2022-08-04T15:31:44;24.05;;;6.57;;
31073;SDS011;17730;53.552;9.940;2022-08-04T15:34:11;24.70;;;6.38;;
31073;SDS011;17730;53.552;9.940;2022-08-04T15:36:52;20.95;;;6.43;;
31073;SDS011;17730;53.552;9.940;2022-08-04T15:46:07;20.98;;;6.75;;
31073;SDS011;17730;53.552;9.940;2022-08-04T15:48:29;19.17;;;5.32;;
31073;SDS011;17730;53.552;9.940;2022-08-04T15:55:51;9.80;;;4.55;;
31073;SDS011;17730;53.552;9.940;2022-08-04T15:58:17;20.48;;;5.35;;
31073;SDS011;17730;53.552;9.940;2022-08-04T16:05:59;22.17;;;6.65;;
31073;SDS011;17730;53.552;9.940;2022-08-04T16:11:38;16.05;;;5.93;;
31073;SDS011;17730;53.552;9.940;2022-08-04T16:14:07;15.75;;;4.50;;
31073;SDS011;17730;53.552;9.940;2022-08-04T16:21:50;19.15;;;6.32;;
31073;SDS011;17730;53.552;9.940;2022-08-04T16:24:18;15.82;;;7.07;;
31073;SDS011;17730;53.552;9.940;2022-08-04T16:29:25;9.13;;;5.18;;
31073;SDS011;17730;53.552;9.940;2022-08-04T16:34:51;11.10;;;5.10;;
31073;SDS011;17730;53.552;9.940;2022-08-04T16:37:33;17.85;;;5.78;;
31073;SDS011;17730;53.552;9.940;2022-08-04T16:42:50;16.63;;;8.23;;
31073;SDS011;17730;53.552;9.940;2022-08-04T16:45:15;19.63;;;7.47;;
31073;SDS011;17730;53.552;9.940;2022-08-04T16:50:13;14.90;;;6.70;;
31073;SDS011;17730;53.552;9.940;2022-08-04T16:52:41;17.80;;;5.63;;
31073;SDS011;17730;53.552;9.940;2022-08-04T16:55:24;17.98;;;5.53;;
31073;SDS011;17730;53.552;9.940;2022-08-04T16:57:52;14.20;;;5.32;;
31073;SDS011;17730;53.552;9.940;2022-08-04T17:00:41;9.85;;;4.85;;
31073;SDS011;17730;53.552;9.940;2022-08-04T17:03:06;12.02;;;4.72;;
31073;SDS011;17730;53.552;9.940;2022-08-04T17:05:35;7.78;;;4.32;;
31073;SDS011;17730;53.552;9.940;2022-08-04T17:08:02;11.07;;;5.32;;
31073;SDS011;17730;53.552;9.940;2022-08-04T17:10:36;12.88;;;5.72;;
31073;SDS011;17730;53.552;9.940;2022-08-04T17:13:18;14.70;;;5.25;;
31073;SDS011;17730;53.552;9.940;2022-08-04T17:15:51;14.50;;;5.35;;
31073;SDS011;17730;53.552;9.940;2022-08-04T17:18:21;15.77;;;4.93;;
31073;SDS011;17730;53.552;9.940;2022-08-04T17:20:56;10.70;;;4.82;;
31073;SDS011;17730;53.552;9.940;2022-08-04T17:23:37;13.18;;;6.07;;
31073;SDS011;17730;53.552;9.940;2022-08-04T17:28:37;10.85;;;4.20;;
31073;SDS011;17730;53.552;9.940;2022-08-04T17:31:05;8.88;;;3.83;;
31073;SDS011;17730;53.552;9.940;2022-08-04T17:33:34;11.82;;;4.07;;
31073;SDS011;17730;53.552;9.940;2022-08-04T17:36:01;8.48;;;4.43;;
31073;SDS011;17730;53.552;9.940;2022-08-04T17:38:32;9.88;;;4.13;;
31073;SDS011;17730;53.552;9.940;2022-08-04T17:41:10;9.18;;;4.38;;
31073;SDS011;17730;53.552;9.940;2022-08-04T17:43:39;10.32;;;4.53;;
31073;SDS011;17730;53.552;9.940;2022-08-04T17:51:47;8.45;;;3.88;;
31073;SDS011;17730;53.552;9.940;2022-08-04T17:54:16;12.50;;;4.80;;
31073;SDS011;17730;53.552;9.940;2022-08-04T17:56:44;9.73;;;4.18;;
31073;SDS011;17730;53.552;9.940;2022-08-04T18:02:50;20.77;;;9.75;;
31073;SDS011;17730;53.552;9.940;2022-08-04T18:05:25;14.95;;;9.45;;
31073;SDS011;17730;53.552;9.940;2022-08-04T18:07:51;19.60;;;7.95;;
31073;SDS011;17730;53.552;9.940;2022-08-04T18:10:17;16.65;;;6.53;;
31073;SDS011;17730;53.552;9.940;2022-08-04T18:12:45;12.20;;;5.43;;
31073;SDS011;17730;53.552;9.940;2022-08-04T18:15:20;17.02;;;6.82;;
31073;SDS011;17730;53.552;9.940;2022-08-04T18:17:47;22.15;;;9.90;;
31073;SDS011;17730;53.552;9.940;2022-08-04T18:20:17;24.25;;;11.75;;
31073;SDS011;17730;53.552;9.940;2022-08-04T18:22:44;17.17;;;7.70;;
31073;SDS011;17730;53.552;9.940;2022-08-04T18:25:11;22.48;;;11.73;;
31073;SDS011;17730;53.552;9.940;2022-08-04T18:27:49;14.55;;;7.82;;
31073;SDS011;17730;53.552;9.940;2022-08-04T18:30:17;15.45;;;7.18;;
31073;SDS011;17730;53.552;9.940;2022-08-04T18:32:42;13.50;;;6.97;;
31073;SDS011;17730;53.552;9.940;2022-08-04T18:35:08;12.13;;;5.47;;
31073;SDS011;17730;53.552;9.940;2022-08-04T18:37:37;14.60;;;6.13;;
31073;SDS011;17730;53.552;9.940;2022-08-04T18:40:04;12.18;;;5.65;;
31073;SDS011;17730;53.552;9.940;2022-08-04T18:42:35;11.43;;;5.40;;
31073;SDS011;17730;53.552;9.940;2022-08-04T18:45:01;14.32;;;4.70;;
31073;SDS011;17730;53.552;9.940;2022-08-04T18:47:28;12.05;;;4.90;;
31073;SDS011;17730;53.552;9.940;2022-08-04T18:49:53;10.20;;;4.43;;
31073;SDS011;17730;53.552;9.940;2022-08-04T18:52:19;12.45;;;4.72;;
31073;SDS011;17730;53.552;9.940;2022-08-04T18:54:45;9.13;;;5.00;;
31073;SDS011;17730;53.552;9.940;2022-08-04T18:57:11;7.97;;;5.10;;
31073;SDS011;17730;53.552;9.940;2022-08-04T18:59:41;13.43;;;4.68;;
31073;SDS011;17730;53.552;9.940;2022-08-04T19:02:07;18.33;;;8.85;;
31073;SDS011;17730;53.552;9.940;2022-08-04T19:04:33;16.65;;;8.57;;
31073;SDS011;17730;53.552;9.940;2022-08-04T19:06:59;13.68;;;7.80;;
31073;SDS011;17730;53.552;9.940;2022-08-04T19:09:24;10.45;;;6.25;;
31073;SDS011;17730;53.552;9.940;2022-08-04T19:11:51;12.65;;;4.97;;
31073;SDS011;17730;53.552;9.940;2022-08-04T19:14:16;12.43;;;4.60;;
31073;SDS011;17730;53.552;9.940;2022-08-04T19:16:42;13.88;;;5.32;;
31073;SDS011;17730;53.552;9.940;2022-08-04T19:19:08;13.48;;;4.40;;
31073;SDS011;17730;53.552;9.940;2022-08-04T19:21:34;17.05;;;8.02;;
31073;SDS011;17730;53.552;9.940;2022-08-04T19:24:00;18.52;;;6.45;;
31073;SDS011;17730;53.552;9.940;2022-08-04T19:26:25;12.93;;;6.80;;
31073;SDS011;17730;53.552;9.940;2022-08-04T19:28:51;14.40;;;6.15;;
31073;SDS011;17730;53.552;9.940;2022-08-04T19:31:18;10.43;;;5.30;;
31073;SDS011;17730;53.552;9.940;2022-08-04T19:33:44;6.30;;;4.28;;
31073;SDS011;17730;53.552;9.940;2022-08-04T19:36:10;8.50;;;4.45;;
31073;SDS011;17730;53.552;9.940;2022-08-04T19:38:36;28.33;;;16.27;;
31073;SDS011;17730;53.552;9.940;2022-08-04T19:41:03;12.25;;;7.15;;
31073;SDS011;17730;53.552;9.940;2022-08-04T19:43:30;11.57;;;6.97;;
31073;SDS011;17730;53.552;9.940;2022-08-04T19:45:56;13.70;;;7.47;;
31073;SDS011;17730;53.552;9.940;2022-08-04T19:48:22;18.20;;;6.38;;